Cassel, CA (96016)

5:17 PM PDT on September 16, 2014 (GMT -0700)
SOLDIER MOUNTAIN | Change Station
CLOSE
Current Station
Personal Weather Station
Location: Cassel, CA
Elevation: 3697 ft
Nearby Weather Stations

Elev 3697 ft 40.93 °N, 121.59 °W | Updated 28 minutes ago

Clear
Clear
81.0 °F
Feels Like 79 °F
N
17.0
Wind Variable Wind from WSW

Today
High -- | Low -- °F
--% Chance of Precip.
Yesterday
High -- | Low -- °F
Precip. -- in
6:47 AM 7:13 PM
Last Quarter, 41% visible
Pressure 29.91 in
Visibility 10.0 miles
Clouds Clear
Heat Index 79 °F
Dew Point 38 °F
Humidity 21%
Rainfall -999.00 in
Snow Depth 0 in , 0 in , 0 in
UV 2 out of 12
Pollen 6.80 out of 12
Air Quality Not available.
Flu Activity Not available.
METAR KMHS 162356Z AUTO 00000KT 10SM CLR 26/00 A2995 RMK AO2 SLP128 T02560000 10278 20228 56010

More Conditions Fewer Conditions

Pressure 29.91 in
Visibility 10.0 miles
Clouds Clear
Heat Index 79 °F
Dew Point 38 °F
Humidity 21%
Rainfall -999.00 in
Snow Depth 0 in , 0 in , 0 in
UV 2 out of 12
Pollen 6.80 out of 12
Air Quality Not available.
Flu Activity Not available.
METAR KMHS 162356Z AUTO 00000KT 10SM CLR 26/00 A2995 RMK AO2 SLP128 T02560000 10278 20228 56010

More Conditions Fewer Conditions

10-Day Weather Forecast

Almanac

Astronomy

Sep. 16, 2014 Rise Set
Actual Time 6:47 AM PDT 7:13 PM PDT
Civil Twilight 6:20 AM PDT 7:40 PM PDT
Nautical Twilight 5:47 AM PDT 8:12 PM PDT
Astronomical Twilight 5:14 AM PDT 8:46 PM PDT
Moon No Moon Rise 2:43 PM PDT (9/16)
Length of Visible Light 13h 20m
Length of Day
12h 25m
Tomorrow will be 2m 41s shorter.
Last Quarter, 41% of the Moon is Illuminated
Today
Last Quarter
Sep 24
New
Oct 1
First Quarter
Oct 8
Full
Oct 15
Last Quarter

Today's Extremes

State Highs State Lows

Community

WunderPhotos

Upload Photos

1,753,930 photos uploaded!

Nearby

Snow Depth

Station Depth Elevation
Leavitt Meadows 0 in 7200 ft
CSS Lab 0 in 6900 ft
Echo Peak 0 in 7800 ft
Adin Mountain 0 in 6200 ft

Earthquake Activity

City Distance Mag. Time & Date
Lakeview, Oregon 118 miles 2.6 1:34 PM PDT
2014-09-16
Lakeview, Oregon 117 miles 2.5 4:10 AM PDT
2014-09-16
Lakeview, Oregon 117 miles 3.0 4:23 PM PDT
2014-09-15
Lakeview, Oregon 117 miles 2.9 6:16 AM PDT
2014-09-15
Minimum magnitude displayed is 2.5.

Coastal Water Temperatures

Place Temperature
No Stations Reporting

Nearby Weather Stations